Arthur Monteiro

Скаут - Flamengo
20 Май 2027
Четверг
Продолжить

Характер

Адаптивность (9) Амбиции (1) Скандальность (16) Верность (4) Стрессоустойчивость (13) Профессионализм (19) Благородство (20) Темперамент (10)

Профиль

Стиль управления Демократичный
Лицензия Континентальная C
Решительность 13
Управление людьми 14
Мотивация 10
Дисциплина 8
Удовлетворённость
50%
Усталость
0%
Должность Скаут
Зарплата 103.7K в нед.
Контракт 14.03.2028

Производительность

Поведение Нормальное
Эффективность тренировок
30%
Развитие игроков
35%
Профилактика травм
55%
Тактическая реализация
80%

Недавние события

Оценил игрока только что
Участвовал в селекционном совещании 7 дн. назад
Оценил игрока 7 дн. назад
Оценил игрока 7 дн. назад
Оценил игрока 7 дн. назад
Оценил игрока 7 дн. назад
Оценил игрока 7 дн. назад
Оценил игрока 7 дн. назад

Текущее наблюдение

274
Игрок Клуб Статус Способность Уверенность Наблюдений Последнее наблюдение Последний голос
Matheus Araújo Oeste Активный 89 / 89 30% 1 / 1m 19.05.2027 -
Wellerson Sampaio Correa Активный 101 / 101 30% 1 / 1m 19.05.2027 -
Matthijs de Ligt Manchester United Активный 156 / 166 40% 2 17.05.2027 -
Curtis Jones Inter Активный 164 / 156 40% 4 17.05.2027 -
Moisés Caicedo Chelsea Активный 167 / 175 40% 2 17.05.2027 -
Alexander Isak Liverpool Активный 172 / 172 40% 2 17.05.2027 -
Isaiah Jones Luton Town Активный 128 / 129 40% 1 17.05.2027 -
Zé Vitor Nacional Активный 129 / 130 40% 1 17.05.2027 -
Jan Paul van Hecke Tottenham Активный 160 / 154 40% 1 16.05.2027 -
William Saliba Arsenal Активный 175 / 177 40% 1 16.05.2027 -
Sven Botman Newcastle United Активный 160 / 154 40% 1 16.05.2027 -
Mats Wieffer Brighton Активный 143 / 148 40% 4 14.05.2027 -
Borja Sainz Fiorentina Активный 144 / 149 40% 7 14.05.2027 -
Julio Enciso Ipswich Town Активный 145 / 140 40% 4 14.05.2027 -
Cody Gakpo Liverpool Активный 156 / 158 40% 1 14.05.2027 -
Alessandro Buongiorno Sassuolo Активный 153 / 157 40% 1 14.05.2027 -
Tim Iroegbunam Hull City Активный 138 / 133 40% 1 14.05.2027 -
Vinícius Júnior Arsenal Активный 173 / 172 40% 3 12.05.2027 -
Phil Foden Manchester City Активный 171 / 173 40% 3 12.05.2027 -
Kaoru Mitoma Brighton Активный 160 / 151 40% 1 12.05.2027 -
Jacob Ramsey Newcastle United Активный 154 / 151 40% 2 11.05.2027 -
Mohammed Kudus Tottenham Активный 163 / 155 40% 3 11.05.2027 -
Kiernan Dewsbury-Hall Everton Активный 148 / 147 40% 2 11.05.2027 -
Gabriel Martinelli Brighton Активный 161 / 167 40% 1 11.05.2027 -
Tom Fellows Southampton Активный 134 / 131 40% 3 09.05.2027 -
Jaden Philogene Ipswich Town Активный 139 / 135 40% 2 09.05.2027 -
Florian Wirtz Liverpool Активный 173 / 178 40% 2 09.05.2027 -
Emile Smith Rowe Fulham Активный 149 / 156 40% 1 09.05.2027 -
Rayan Cherki Manchester City Активный 161 / 159 40% 1 09.05.2027 -
Georginio Rutter Brighton Активный 146 / 152 40% 2 08.05.2027 -
Noussair Mazraoui Manchester United Активный 152 / 149 40% 3 08.05.2027 -
Amadou Onana Aston Villa Активный 150 / 149 40% 1 08.05.2027 -
Francisco Conceição Juventus Активный 158 / 157 40% 1 07.05.2027 -
Kasey McAteer Ipswich Town Активный 126 / 127 40% 1 06.05.2027 -
Xavi Simons Tottenham Активный 156 / 153 40% 1 06.05.2027 -
Loum Tchaouna Coventry City Активный 145 / 143 40% 4 03.05.2027 -
Carlos Alcaraz Everton Активный 144 / 150 40% 4 03.05.2027 -
Kai Havertz Arsenal Активный 157 / 160 40% 2 02.05.2027 -
Nicolas Jackson Aston Villa Активный 154 / 152 40% 1 02.05.2027 -
Jérémy Doku Manchester City Активный 169 / 168 40% 1 02.05.2027 -
Antoine Semenyo Manchester City Активный 165 / 152 40% 1 01.05.2027 -
Martin Ødegaard Arsenal Активный 184 / 178 40% 1 01.05.2027 -
João Pedro Chelsea Активный 157 / 160 40% 3 30.04.2027 -
Giacomo Raspadori Atalanta Активный 153 / 146 40% 7 30.04.2027 -
Ander Barrenetxea Real Sociedad Активный 157 / 151 40% 5 30.04.2027 -
Charles De Ketelaere Atalanta Активный 155 / 150 40% 8 29.04.2027 -
Ryan Sessegnon Fulham Активный 146 / 144 40% 1 29.04.2027 -
Sandro Tonali Tottenham Активный 173 / 175 40% 1 27.04.2027 -
Kevin Fulham Активный 147 / 147 40% 1 27.04.2027 -
Matt O'Riley Brighton Активный 144 / 148 40% 1 26.04.2027 -
Callum Hudson-Odoi Nottingham Forest Активный 147 / 151 40% 1 26.04.2027 -
William Gomes Porto Активный 148 / 140 40% 6 24.04.2027 -
Dango Ouattara Brentford Активный 147 / 140 40% 1 24.04.2027 -
Rico Lewis Manchester City Активный 147 / 158 40% 2 23.04.2027 -
Williams Manyama SuperSport United Активный 119 / 114 40% 1 23.04.2027 -
Jake O'Brien Everton Активный 147 / 153 40% 1 23.04.2027 -
Rodrigo Zalazar Sporting CP Активный 151 / 153 40% 2 21.04.2027 -
Morgan Rogers Chelsea Активный 164 / 163 40% 1 21.04.2027 -
Alejandro Zendejas Club America Активный 143 / 136 40% 5 20.04.2027 -
Iván Fresneda Sporting CP Активный 139 / 139 40% 3 18.04.2027 -
Francisco Moura Lusitânia Lourosa Активный 140 / 143 40% 4 18.04.2027 -
Mason Mount Manchester United Активный 151 / 151 40% 1 18.04.2027 -
Sergi Altimira Sporting CP Активный 137 / 143 40% 1 18.04.2027 -
Quinten Timber Crystal Palace Активный 155 / 147 40% 1 18.04.2027 -
Callum Doyle Wrexham Активный 135 / 139 40% 1 18.04.2027 -
Dodi Lukébakio Benfica Активный 149 / 143 40% 5 16.04.2027 -
Telmo Arcanjo Vitoria Guimaraes Активный 129 / 117 40% 2 15.04.2027 -
Ole Pohlmann Rio Ave Активный 123 / 125 40% 2 15.04.2027 -
Makan Aïko Tondela Активный 119 / 113 40% 2 14.04.2027 -
Finn Azaz Southampton Активный 129 / 131 40% 1 14.04.2027 -
Joelinton Newcastle United Активный 162 / 156 40% 1 13.04.2027 -
Adrien Truffert Bournemouth Активный 156 / 155 40% 1 13.04.2027 -
João Mendes Vitoria Guimaraes Активный 122 / 122 40% 1 12.04.2027 -
Rodrigo Pinheiro Famalicao Активный 125 / 132 40% 1 12.04.2027 -
Welington Southampton Активный 127 / 131 40% 1 12.04.2027 -
Mario Dorgeles Braga Активный 132 / 133 40% 1 12.04.2027 -
Pau Víctor AVS Активный 138 / 129 40% 8 11.04.2027 -
Geny Sporting CP Активный 145 / 144 40% 5 11.04.2027 -
Naïs Djouahra Arouca Активный 126 / 115 40% 2 11.04.2027 -
César Gelabert Gijón Активный 150 / 149 40% 3 09.04.2027 -
José Paradela Cruz Azul Активный 137 / 139 40% 2 08.04.2027 -
Kerem Aktürkoğlu Fenerbahce Активный 146 / 132 40% 1 08.04.2027 -
Abel Bretones Osasuna Активный 139 / 133 40% 1 08.04.2027 -
Juan Brunetta Tigres Активный 146 / 144 40% 2 06.04.2027 -
Tamble Monteiro Rio Ave Активный 115 / 113 40% 1 06.04.2027 -
Joe Gelhardt Hull City Активный 130 / 140 40% 1 06.04.2027 -
Gustavo Silva Vitoria Guimaraes Активный 124 / 126 40% 3 05.04.2027 -
Nordi Mukiele Sunderland Активный 148 / 141 40% 3 03.04.2027 -
Xaver Schlager Nottingham Forest Активный 145 / 142 40% 4 03.04.2027 -
Ismaïla Sarr Crystal Palace Активный 151 / 143 40% 3 03.04.2027 -
Anton Stach Leeds United Активный 151 / 146 40% 3 02.04.2027 -
Osame Sahraoui LOSC Lille Активный 147 / 139 40% 4 31.03.2027 -
Hwang In-Beom Porto Активный 147 / 138 40% 4 31.03.2027 -
Che Adams Torino Активный 140 / 135 40% 1 31.03.2027 -
Joaquín Panichelli Le Havre AC Активный 149 / 139 40% 3 30.03.2027 -
Alfonso Trezza Arouca Активный 124 / 126 40% 2 29.03.2027 -
Morgan Whittaker Middlesbrough Активный 137 / 131 40% 4 29.03.2027 -
Santi García Gil Vicente Активный 131 / 137 40% 3 29.03.2027 -
Víctor Gómez Braga Активный 134 / 143 40% 3 28.03.2027 -
Malick Fofana Sunderland Активный 137 / 141 40% 2 28.03.2027 -
Heorhii Sudakov Benfica Активный 142 / 146 40% 4 26.03.2027 -
Tino Livramento Newcastle United Активный 161 / 151 40% 1 25.03.2027 -
Sofiane Diop OGC Nice Активный 141 / 145 40% 1 25.03.2027 -
Aaron Hickey Brentford Активный 144 / 152 40% 2 24.03.2027 -
Alberto Costa Porto Активный 149 / 153 40% 9 24.03.2027 -
Iker Benito Queretaro Активный 126 / 123 40% 2 24.03.2027 -
Carlos Vicente Birmingham Активный 146 / 141 40% 3 24.03.2027 -
Ozziel Herrera Tigres Активный 132 / 131 40% 3 23.03.2027 -
Ansu Fati Monaco Активный 136 / 132 40% 1 22.03.2027 -
Figueiredo Alverca Активный 131 / 123 40% 6 20.03.2027 -
Valery Académico de Viseu Активный 122 / 120 40% 1 20.03.2027 -
Ritsu Doan Benfica Активный 147 / 156 40% 3 18.03.2027 -
Jhon Arias Palmeiras Активный 139 / 143 40% 2 18.03.2027 -
Fotis Ioannidis Rio Ave Активный 141 / 132 40% 2 17.03.2027 -
José Manuel López Palmeiras Активный 136 / 135 40% 5 17.03.2027 -
Erick Sánchez OGC Nice Активный 148 / 140 40% 7 17.03.2027 -
Leandro Antonetti Estrela da Amadora Активный 102 / 105 40% 1 17.03.2027 -
Harry Wilson Leeds United Активный 139 / 144 40% 1 17.03.2027 -
Yankuba Minteh Brighton Активный 154 / 159 40% 1 17.03.2027 -
Barış Alper Yılmaz Galatasaray Активный 145 / 151 40% 4 16.03.2027 -
Dani Ceballos AS Roma Активный 147 / 138 40% 1 14.03.2027 -
Félix Lemaréchal Club Brugge Активный 143 / 144 40% 3 12.03.2027 -
Roberto Fernández Braga Активный 144 / 139 40% 3 11.03.2027 -
Malcom Al Jazira Активный 151 / 141 40% 1 10.03.2027 -
Derensili Sanches Fernandes Huddersfield Town Активный 131 / 119 40% 1 10.03.2027 -
Amine Adli Bournemouth Активный 139 / 149 40% 2 08.03.2027 -
Brennan Johnson Everton Активный 139 / 138 40% 1 07.03.2027 -
Gianluca Prestianni Benfica Активный 138 / 141 40% 2 04.03.2027 -
Orbelín Pineda Monterrey Активный 143 / 137 40% 2 03.03.2027 -
Chiquinho Alverca Активный 135 / 132 40% 1 02.03.2027 -
Kingsley Coman Al-Nassr Активный 149 / 160 40% 4 01.03.2027 -
Sergio Arribas Almería Активный 144 / 131 40% 1 01.03.2027 -
Dylan Nandín Arouca Активный 117 / 112 40% 1 01.03.2027 -
Nicolò Tresoldi Club Brugge Активный 132 / 140 40% 1 01.03.2027 -
Florentino Luís Ipswich Town Активный 137 / 133 40% 1 26.02.2027 -
Adriano Bertaccini Anderlecht Активный 127 / 127 40% 1 23.02.2027 -
Marezi Portsmouth Активный 120 / 124 40% 1 23.02.2027 -
José Bica Leixões Активный 106 / 103 40% 1 23.02.2027 -
Jalen Blesa Rio Ave Активный 115 / 125 40% 1 21.02.2027 -
Max Svensson Penafiel Активный 112 / 99 40% 1 21.02.2027 -
Adnan Courtois KV Oostende Активный 139 / 134 40% 3 19.02.2027 -
Vinícius Lopes Santa Clara Активный 117 / 116 40% 1 19.02.2027 -
Will Lankshear Middlesbrough Активный 124 / 135 40% 1 19.02.2027 -
Toni Fruk KV Mechelen Активный 136 / 126 40% 1 19.02.2027 -
Jan Virgili Club Brugge Активный 134 / 126 40% 1 19.02.2027 -
Gabri Martínez Braga Активный 136 / 127 40% 2 17.02.2027 -
Juanlu Bournemouth Активный 144 / 140 40% 1 15.02.2027 -
Beni Mukendi Vitoria Guimaraes Активный 130 / 123 40% 1 15.02.2027 -
Henry Mosquera Bragantino Отклонён 127 / 124 40% 1 15.02.2027 Нужно больше данных
Victor Froholdt Porto Активный 144 / 163 40% 4 13.02.2027 -
Taichi Fukui Arouca Активный 130 / 136 40% 1 11.02.2027 -
Óscar Mingueza Crystal Palace Активный 151 / 146 40% 5 10.02.2027 -
Brian Rodríguez Club America Активный 128 / 124 40% 1 10.02.2027 -
Razvan Balasa Crvena Zvezda Активный 149 / 151 40% 8 07.02.2027 -
Henrique Araújo Casa Pia Активный 126 / 113 40% 2 06.02.2027 -
Isaac Romero Sevilla Активный 148 / 146 40% 1 05.02.2027 -
Guilherme Neiva AVS Активный 109 / 109 40% 1 05.02.2027 -
Evidence Makgopa Orlando Pirates Активный 112 / 119 40% 1 05.02.2027 -
Olívio Tomé Benfica Активный 111 / 118 40% 1 03.02.2027 -
Luís Henrique Inter Активный 139 / 147 40% 1 03.02.2027 -
Gonzalo Fulham Активный 142 / 149 40% 1 03.02.2027 -
Igor Burnley Активный 142 / 139 40% 1 03.02.2027 -
Aune Heggebø West Bromwich Albion Активный 126 / 132 40% 1 31.01.2027 -
Yousef Salech Cardiff City Активный 131 / 116 40% 1 31.01.2027 -
Samu Aghehowa AS Roma Активный 149 / 150 40% 7 30.01.2027 -
Martín Tejón Maritimo Активный 119 / 123 40% 2 25.01.2027 -
Miguel Falé Pacos de Ferreira Активный 100 / 111 40% 2 25.01.2027 -
Luis Vázquez Birmingham Активный 134 / 129 40% 1 25.01.2027 -
Igor Jesus Nottingham Forest Активный 147 / 145 40% 2 24.01.2027 -
Korede Osundina Casa Pia Активный 116 / 122 40% 1 20.01.2027 -
Gabriel Veron Porto Активный 129 / 125 40% 3 19.01.2027 -
Paulinho Palmeiras Отклонён 141 / 140 40% 1 10.01.2027 -
Themba Ngcobo SuperSport United Активный 116 / 116 40% 1 08.01.2027 -
Manfred Ugalde Spartak Moscow Активный 138 / 127 40% 1 04.01.2027 -
Erick Pulga Bahia Упущен 133 / 129 83% 1 28.12.2026 -
Dawda Camara Alverca Активный 113 / 121 40% 1 23.12.2026 -
Ruben van Bommel Ferencvaros Активный 139 / 141 40% 1 22.12.2026 -
Andreas Pereira Palmeiras Упущен 137 / 139 40% 1 21.12.2026 -
Matheus Pereira Cruzeiro Активный 138 / 144 40% 1 21.12.2026 -
Andrés Gómez Vasco da Gama Упущен 130 / 141 83% 1 02.12.2026 -
Jean-Philippe Mateta Crystal Palace Активный 151 / 159 40% 11 30.11.2026 -
João Neves Paris Saint-Germain Активный 164 / 170 40% 1 29.11.2026 -
Manuel Locatelli Juventus Активный 151 / 144 40% 2 28.11.2026 -
Rúben Neves Al-Hilal Активный 144 / 150 40% 1 28.11.2026 -
Leo Castledine Middlesbrough Активный 123 / 138 40% 1 27.11.2026 -
Bart Verbruggen Brighton Активный 147 / 162 40% 2 25.11.2026 -
Robin Roefs Sunderland Активный 142 / 138 40% 1 25.11.2026 -
Vanderson Monaco Активный 145 / 146 40% 1 21.11.2026 -
Gianluca Scamacca Atalanta Активный 149 / 152 40% 7 20.11.2026 -
Omar Alderete Sunderland Активный 154 / 148 40% 1 20.11.2026 -
Lewis Cook Bournemouth Активный 144 / 147 40% 3 19.11.2026 -
Vangelis Pavlidis Twente Активный 149 / 157 40% 8 17.11.2026 -
Lisandro Martínez Manchester United Активный 159 / 161 40% 4 17.11.2026 -
Dominic Solanke Tottenham Активный 153 / 146 40% 4 17.11.2026 -
Tiago Santos LOSC Lille Активный 141 / 138 40% 2 15.11.2026 -
João Félix Olympiacos Активный 157 / 159 40% 10 13.11.2026 -
Steven Bergwijn Al-Ittihad Активный 144 / 152 40% 4 13.11.2026 -
Pau Torres Aston Villa Активный 155 / 141 40% 3 09.11.2026 -
Randal Kolo Muani Juventus Активный 146 / 150 40% 3 09.11.2026 -
Destiny Udogie Tottenham Активный 143 / 156 40% 1 09.11.2026 -
Matvey Safonov Paris Saint-Germain Активный 149 / 151 40% 4 07.11.2026 -
Senne Lammens Manchester United Активный 141 / 146 40% 2 07.11.2026 -
Patrick Berg Bodo/Glimt Активный 137 / 147 40% 2 03.11.2026 -
Tomás Araújo Benfica Активный 147 / 136 40% 3 03.11.2026 -
Luis Suárez Chelsea Активный 158 / 161 40% 4 01.11.2026 -
Federico Chiesa Liverpool Активный 151 / 148 40% 4 31.10.2026 -
Fikayo Tomori AC Milan Активный 145 / 154 40% 1 30.10.2026 -
Pedro Porro Tottenham Активный 146 / 136 40% 1 27.10.2026 -
Cheick Doucouré Crystal Palace Активный 146 / 144 40% 2 24.10.2026 -
Alan Varela Porto Активный 138 / 138 40% 2 22.10.2026 -
Gonçalo Inácio Sporting CP Активный 151 / 147 40% 2 21.10.2026 -
Justin Bijlow Genoa Отклонён 146 / 155 40% 2 19.10.2026 -
Dean Henderson Crystal Palace Активный 147 / 139 40% 2 19.10.2026 -
Endrick Real Madrid Активный 141 / 148 40% 1 17.10.2026 -
Eliezer Mayenda Stade Rennais Активный 132 / 136 40% 1 15.10.2026 -
Matheus Alves CSKA Moscow Активный 125 / 133 40% 1 14.10.2026 -
Malick Thiaw West Ham United Активный 156 / 146 40% 2 13.10.2026 -
Elliot Anderson Manchester City Активный 155 / 149 40% 1 13.10.2026 -
Viktor Baier Viktoria Plzen Активный 119 / 130 40% 1 11.10.2026 -
Dominik Greif Olympique Lyonnais Отклонён 143 / 148 40% 1 11.10.2026 -
Diogo Costa Manchester City Активный 156 / 155 40% 1 11.10.2026 -
Erick Reyes Toluca Активный 135 / 134 40% 1 08.10.2026 -
Rasmus Højlund Napoli Активный 154 / 161 40% 4 05.10.2026 -
Conor Gallagher Tottenham Активный 149 / 157 40% 2 02.10.2026 -
Cristhian Mosquera Arsenal Активный 151 / 140 40% 1 02.10.2026 -
Ferdi Kadıoğlu Brighton Активный 148 / 149 40% 1 02.10.2026 -
Mateo Mendoza Godoy Cruz Активный 118 / 121 40% 1 01.10.2026 -
Jack Hinshelwood Brighton Активный 141 / 143 40% 1 30.09.2026 -
Pierre Kalulu Juventus Активный 157 / 161 40% 1 30.09.2026 -
Ousmane Diomande Nottingham Forest Активный 152 / 145 40% 1 29.09.2026 -
Gabriel Gudmundsson Leeds United Активный 145 / 151 40% 1 27.09.2026 -
Ian Maatsen Aston Villa Активный 145 / 145 40% 1 27.09.2026 -
Malo Gusto Chelsea Активный 146 / 156 40% 2 26.09.2026 -
Martim Fernandes Porto Активный 133 / 138 40% 1 26.09.2026 -
Matty Cash Aston Villa Активный 152 / 156 40% 1 21.09.2026 -
Guillaume Restes Toulouse FC Активный 129 / 128 40% 1 20.09.2026 -
Yehvann Diouf OGC Nice Активный 136 / 131 40% 1 20.09.2026 -
Josep Martínez Inter Активный 134 / 138 40% 1 19.09.2026 -
Edoardo Motta Lazio Активный 113 / 135 40% 1 19.09.2026 -
Francesco Pio Esposito Inter Активный 139 / 136 40% 2 16.09.2026 -
Benjamin White Arsenal Активный 154 / 145 40% 2 14.09.2026 -
Marcus Rashford Manchester United Активный 161 / 153 40% 6 13.09.2026 -
Rodrigo Bentancur Tottenham Активный 145 / 139 40% 1 13.09.2026 -
Antonee Robinson Fulham Активный 157 / 141 40% 1 13.09.2026 -
Tyler Adams Bournemouth Активный 153 / 162 40% 1 11.09.2026 -
Santiago Castro AS Roma Активный 146 / 154 40% 1 10.09.2026 -
Evanilson Bournemouth Активный 142 / 141 40% 2 07.09.2026 -
Assane Diao Lazio Активный 137 / 138 40% 1 07.09.2026 -
Gonçalo Ramos AC Milan Активный 157 / 157 40% 2 02.09.2026 -
Dušan Vlahović Juventus Активный 159 / 160 40% 1 02.09.2026 -
Bradley Barcola Liverpool Активный 157 / 157 40% 4 27.08.2026 -
Erick Vitória Активный 132 / 132 30% 1 / 1m 26.08.2026 -
Jarrod Bowen West Ham United Активный 159 / 146 40% 2 25.08.2026 -
Matías Fernández-Pardo Newcastle United Активный 135 / 146 40% 1 25.08.2026 -
Luca Koleosho Paris FC Активный 121 / 141 40% 1 20.08.2026 -
Jader Santa Clara Активный 114 / 117 56% 2 / 2m 19.08.2026 -
Fabri Vitória Активный 124 / 124 52% 1 / 1m 19.08.2026 -
Anderson Pato Vitória Активный 100 / 103 42% 1 / 1m 19.08.2026 -
Ilyas Ansah Hull City Активный 127 / 138 40% 1 18.08.2026 -
Ferran Torres Paris Saint-Germain Активный 166 / 156 40% 1 18.08.2026 -
Mateus Mané Manchester United Активный 130 / 147 40% 1 15.08.2026 -
Lima Atletico Goianiense Активный 84 / 89 30% 1 / 1m 12.08.2026 -
André Luís Mirassol Активный 123 / 123 30% 1 / 1m 12.08.2026 -
Georges Mikautadze Villarreal Активный 151 / 156 40% 1 09.08.2026 -
Rayan Bournemouth Активный 136 / 145 40% 1 07.08.2026 -
Senny Mayulu Paris Saint-Germain Активный 142 / 141 40% 1 06.08.2026 -
Donyell Malen AS Roma Активный 141 / 148 40% 1 06.08.2026 -
Dani Vivian Athletic Bilbao Активный 155 / 159 40% 1 06.08.2026 -
Marc Cucurella Real Madrid Активный 155 / 140 40% 1 06.08.2026 -
Jaka Bijol Leeds United Активный 149 / 143 40% 1 06.08.2026 -
Christian Kofane Bayer Leverkusen Активный 125 / 136 40% 1 04.08.2026 -
Adam Wharton Crystal Palace Активный 142 / 147 40% 1 03.08.2026 -
João Simões Sporting CP Активный 131 / 138 40% 1 02.08.2026 -
Ismael Saibari Bayern Munich Активный 148 / 143 40% 1 01.08.2026 -